createdAt,value
2023-01-28T00:02:04.355Z,72.03
2023-01-28T00:04:35.030Z,71.97
2023-01-28T00:07:05.689Z,71.51
2023-01-28T00:09:36.334Z,71.71
2023-01-28T00:12:07.801Z,71.65
2023-01-28T00:14:38.484Z,71.96
2023-01-28T00:17:09.247Z,72.24
2023-01-28T00:19:39.967Z,72.58
2023-01-28T00:22:10.624Z,72.59
2023-01-28T00:24:41.282Z,72.23
2023-01-28T00:27:11.930Z,71.99
2023-01-28T00:29:42.569Z,71.75
2023-01-28T00:32:13.209Z,71.77
2023-01-28T00:34:43.831Z,71.98
2023-01-28T00:37:14.504Z,72.22
2023-01-28T00:39:45.382Z,72.38
2023-01-28T00:42:16.062Z,72.33
2023-01-28T00:44:46.747Z,72.02
2023-01-28T00:47:17.446Z,72.08
2023-01-28T00:49:48.125Z,72.39
2023-01-28T00:52:18.826Z,71.95
2023-01-28T00:54:49.465Z,71.74
2023-01-28T00:57:20.149Z,71.96
2023-01-28T00:59:50.969Z,72.12
2023-01-28T01:02:21.683Z,72.26
2023-01-28T01:04:52.738Z,71.60
2023-01-28T01:07:24.902Z,71.90
2023-01-28T01:09:55.526Z,71.60
2023-01-28T01:12:26.291Z,71.43
2023-01-28T01:14:56.901Z,71.41
2023-01-28T01:17:29.562Z,71.85
2023-01-28T01:20:00.303Z,71.63
2023-01-28T01:22:32.470Z,71.82
2023-01-28T01:25:03.914Z,71.40
2023-01-28T01:27:34.593Z,71.05
2023-01-28T01:30:06.733Z,71.04
2023-01-28T01:32:38.676Z,71.33
2023-01-28T01:35:12.035Z,71.26
2023-01-28T01:37:45.002Z,71.33
2023-01-28T01:40:17.750Z,71.42
2023-01-28T01:42:48.437Z,71.25
2023-01-28T01:45:19.464Z,71.31
2023-01-28T01:47:56.245Z,71.03
2023-01-28T01:50:33.101Z,71.26
2023-01-28T01:53:09.799Z,71.31
2023-01-28T01:55:45.148Z,71.52
2023-01-28T01:58:19.039Z,71.54
2023-01-28T02:00:49.836Z,71.09
2023-01-28T02:03:25.816Z,70.86
2023-01-28T02:05:56.666Z,70.98
2023-01-28T02:08:27.467Z,70.55
2023-01-28T02:11:01.597Z,70.45
2023-01-28T02:13:36.190Z,70.49
2023-01-28T02:16:10.241Z,70.61
2023-01-28T02:18:41.113Z,70.54
2023-01-28T02:21:42.241Z,70.55
2023-01-28T02:24:36.384Z,71.15
2023-01-28T02:27:20.627Z,71.27
2023-01-28T02:29:59.055Z,71.19
2023-01-28T02:32:36.850Z,71.15
2023-01-28T02:35:16.420Z,71.25
2023-01-28T02:37:53.614Z,71.41
2023-01-28T02:40:32.362Z,71.67
2023-01-28T02:43:03.016Z,71.57
2023-01-28T02:45:35.374Z,71.80
2023-01-28T02:48:06.149Z,71.86
2023-01-28T02:50:47.329Z,71.90
2023-01-28T02:53:25.133Z,72.05
2023-01-28T02:56:05.141Z,72.09
2023-01-28T02:58:42.689Z,72.49
2023-01-28T03:01:23.601Z,72.62
2023-01-28T03:04:00.150Z,72.87
2023-01-28T03:06:36.324Z,73.03
2023-01-28T03:09:10.643Z,73.00
2023-01-28T03:11:44.733Z,73.30
2023-01-28T03:14:17.784Z,73.39
2023-01-28T03:16:50.636Z,73.63
2023-01-28T03:19:23.077Z,73.82
2023-01-28T03:21:53.955Z,73.74
2023-01-28T03:24:28.815Z,73.76
2023-01-28T03:27:04.382Z,73.84
2023-01-28T03:29:36.676Z,74.00
2023-01-28T03:32:09.664Z,73.87
2023-01-28T03:34:40.742Z,73.84
2023-01-28T03:37:13.141Z,73.93
2023-01-28T03:39:43.743Z,73.77
2023-01-28T03:42:15.291Z,73.79
2023-01-28T03:44:46.321Z,73.91
2023-01-28T03:47:17.483Z,73.85
2023-01-28T03:49:47.528Z,73.44
2023-01-28T03:52:20.241Z,73.40
2023-01-28T03:54:51.158Z,73.13
2023-01-28T03:57:24.018Z,73.02
2023-01-28T03:59:55.456Z,72.84
2023-01-28T04:02:26.167Z,72.86
2023-01-28T04:04:56.847Z,72.89
2023-01-28T04:07:27.558Z,72.83
2023-01-28T04:09:58.188Z,72.84
2023-01-28T04:12:28.862Z,72.75
2023-01-28T04:14:59.499Z,72.88
2023-01-28T04:17:30.160Z,72.72
2023-01-28T04:20:00.863Z,72.69
2023-01-28T04:22:31.606Z,72.84
2023-01-28T04:25:02.284Z,72.66
2023-01-28T04:27:33.209Z,72.63
2023-01-28T04:30:04.001Z,72.44
2023-01-28T04:32:35.021Z,72.76
2023-01-28T04:35:04.519Z,72.32
2023-01-28T04:37:35.202Z,72.38
2023-01-28T04:40:07.190Z,72.57
2023-01-28T04:42:37.943Z,72.38
2023-01-28T04:45:10.635Z,72.57
2023-01-28T04:47:42.236Z,72.58
2023-01-28T04:50:13.261Z,72.51
2023-01-28T04:52:44.103Z,72.17
2023-01-28T04:55:15.110Z,72.07
2023-01-28T04:57:44.351Z,71.93
2023-01-28T05:00:18.108Z,72.08
2023-01-28T05:02:49.345Z,72.36
2023-01-28T05:05:20.034Z,72.28
2023-01-28T05:07:55.084Z,72.07
2023-01-28T05:10:26.753Z,71.79
2023-01-28T05:12:57.411Z,71.92
2023-01-28T05:15:28.098Z,71.65
2023-01-28T05:17:58.745Z,71.46
2023-01-28T05:20:29.523Z,71.18
2023-01-28T05:23:00.177Z,71.43
2023-01-28T05:25:30.813Z,71.79
2023-01-28T05:28:01.497Z,71.58
2023-01-28T05:30:32.310Z,71.29
2023-01-28T05:33:02.989Z,71.16
2023-01-28T05:35:34.213Z,71.26
2023-01-28T05:38:05.269Z,71.53
2023-01-28T05:40:34.320Z,71.51
2023-01-28T05:43:04.936Z,71.56
2023-01-28T05:45:35.779Z,71.58
2023-01-28T05:48:06.896Z,71.50
2023-01-28T05:50:35.974Z,71.30
2023-01-28T05:53:08.822Z,71.42
2023-01-28T05:55:39.665Z,71.21
2023-01-28T05:58:10.289Z,71.18
2023-01-28T06:00:40.938Z,71.19
2023-01-28T06:03:11.679Z,71.34
2023-01-28T06:05:42.566Z,71.26
2023-01-28T06:08:13.242Z,70.86
2023-01-28T06:10:43.956Z,70.94
2023-01-28T06:13:14.638Z,71.11
2023-01-28T06:15:45.397Z,71.31
2023-01-28T06:18:16.029Z,71.20
2023-01-28T06:20:48.778Z,70.92
2023-01-28T06:23:19.662Z,70.93
2023-01-28T06:25:55.586Z,70.85
2023-01-28T06:28:27.025Z,70.84
2023-01-28T06:30:57.752Z,70.78
2023-01-28T06:33:28.416Z,70.75
2023-01-28T06:35:59.123Z,70.61
2023-01-28T06:38:29.766Z,70.62
2023-01-28T06:41:00.566Z,70.57
2023-01-28T06:43:31.255Z,70.65
2023-01-28T06:46:02.727Z,70.65
2023-01-28T06:48:33.466Z,70.50
2023-01-28T06:51:04.292Z,70.30
2023-01-28T06:53:35.096Z,70.36
2023-01-28T06:56:06.896Z,70.48
2023-01-28T06:58:37.618Z,70.54
2023-01-28T07:01:08.329Z,70.38
2023-01-28T07:03:39.863Z,70.37
2023-01-28T07:06:10.707Z,70.33
2023-01-28T07:08:41.477Z,70.38
2023-01-28T07:11:12.834Z,70.13
2023-01-28T07:13:43.700Z,70.13
2023-01-28T07:16:14.659Z,70.17
2023-01-28T07:18:45.335Z,70.21
2023-01-28T07:21:15.981Z,70.31
2023-01-28T07:23:46.849Z,70.16
2023-01-28T07:26:17.521Z,70.30
2023-01-28T07:28:48.226Z,70.14
2023-01-28T07:31:18.983Z,70.06
2023-01-28T07:33:49.814Z,70.08
2023-01-28T07:36:20.500Z,70.25
2023-01-28T07:38:51.177Z,70.42
2023-01-28T07:41:21.829Z,70.11
2023-01-28T07:43:52.452Z,70.23
2023-01-28T07:46:23.043Z,70.16
2023-01-28T07:48:53.741Z,70.02
2023-01-28T07:51:24.312Z,69.94
2023-01-28T07:53:55.024Z,69.99
2023-01-28T07:56:25.684Z,69.83
2023-01-28T07:58:56.374Z,69.69
2023-01-28T08:01:27.853Z,69.86
2023-01-28T08:03:58.698Z,69.85
2023-01-28T08:06:31.798Z,69.98
2023-01-28T08:09:02.397Z,69.79
2023-01-28T08:11:33.298Z,69.99
2023-01-28T08:14:04.366Z,69.76
2023-01-28T08:16:33.443Z,69.88
2023-01-28T08:19:04.056Z,69.86
2023-01-28T08:21:34.666Z,69.79
2023-01-28T08:24:07.444Z,69.83
2023-01-28T08:26:38.129Z,69.90
2023-01-28T08:29:09.262Z,69.65
2023-01-28T08:31:38.347Z,69.65
2023-01-28T08:34:09.408Z,69.29
2023-01-28T08:36:40.081Z,69.17
2023-01-28T08:39:10.789Z,69.08
2023-01-28T08:41:41.441Z,69.08
2023-01-28T08:44:12.190Z,68.92
2023-01-28T08:46:42.835Z,68.74
2023-01-28T08:49:13.500Z,68.63
2023-01-28T08:51:44.126Z,68.53
2023-01-28T08:54:14.825Z,68.51
2023-01-28T08:56:45.623Z,68.47
2023-01-28T08:59:16.317Z,68.71
2023-01-28T09:01:46.989Z,68.58
2023-01-28T09:04:17.758Z,68.63
2023-01-28T09:06:48.965Z,68.47
2023-01-28T09:09:20.167Z,68.18
2023-01-28T09:11:50.883Z,67.87
2023-01-28T09:14:21.674Z,67.90
2023-01-28T09:16:52.335Z,67.92
2023-01-28T09:19:23.002Z,67.89
2023-01-28T09:21:53.644Z,67.67
2023-01-28T09:24:24.466Z,67.52
2023-01-28T09:26:55.176Z,67.79
2023-01-28T09:29:25.909Z,67.90
2023-01-28T09:31:56.650Z,67.62
2023-01-28T09:34:27.474Z,67.82
2023-01-28T09:36:58.207Z,68.00
2023-01-28T09:39:28.915Z,67.92
2023-01-28T09:42:18.373Z,67.61
2023-01-28T09:45:02.491Z,66.80
2023-01-28T09:47:37.448Z,67.12
2023-01-28T09:50:15.177Z,67.29
2023-01-28T09:52:47.216Z,67.12
2023-01-28T09:55:25.276Z,66.94
2023-01-28T09:57:56.037Z,67.10
2023-01-28T10:00:35.253Z,66.70
2023-01-28T10:03:24.299Z,66.62
2023-01-28T10:06:03.695Z,66.85
2023-01-28T10:08:55.071Z,66.71
2023-01-28T10:11:32.990Z,67.06
2023-01-28T10:14:10.241Z,66.84
2023-01-28T10:16:43.369Z,66.72
2023-01-28T10:19:21.600Z,66.15
2023-01-28T10:21:57.928Z,66.09
2023-01-28T10:24:33.861Z,65.91
2023-01-28T10:27:09.829Z,66.04
2023-01-28T10:29:40.680Z,65.52
2023-01-28T10:32:22.951Z,65.91
2023-01-28T10:34:54.501Z,65.68
2023-01-28T10:37:25.802Z,65.09
2023-01-28T10:40:00.070Z,65.40
2023-01-28T10:42:32.971Z,65.61
2023-01-28T10:45:14.665Z,65.26
2023-01-28T10:47:49.511Z,64.46
2023-01-28T10:50:24.178Z,64.28
2023-01-28T10:52:59.353Z,64.45
2023-01-28T10:55:35.134Z,64.68
2023-01-28T10:58:20.891Z,64.16
2023-01-28T11:00:57.738Z,64.72
2023-01-28T11:03:28.901Z,64.97
2023-01-28T11:05:59.056Z,65.20
2023-01-28T11:08:30.777Z,65.14
2023-01-28T11:11:01.626Z,65.66
2023-01-28T11:13:32.304Z,64.60
2023-01-28T11:16:05.553Z,64.06
2023-01-28T11:18:39.958Z,64.02
2023-01-28T11:21:19.636Z,63.20
2023-01-28T11:23:55.475Z,63.45
2023-01-28T11:26:29.683Z,63.84
2023-01-28T11:29:00.763Z,64.76
2023-01-28T11:31:37.446Z,64.45
2023-01-28T11:34:08.130Z,63.89
2023-01-28T11:36:38.796Z,63.42
2023-01-28T11:39:20.884Z,63.03
2023-01-28T11:41:52.253Z,62.44
2023-01-28T11:44:24.917Z,63.67
2023-01-28T11:47:19.482Z,62.31
2023-01-28T11:50:05.796Z,62.44
2023-01-28T11:53:06.004Z,63.73
2023-01-28T11:55:54.359Z,62.48
2023-01-28T11:58:37.683Z,61.94
2023-01-28T12:01:13.789Z,62.81
2023-01-28T12:04:09.776Z,62.73
2023-01-28T12:06:57.434Z,61.19
2023-01-28T12:09:35.747Z,60.28
2023-01-28T12:12:19.648Z,62.36
2023-01-28T12:15:20.365Z,62.57
2023-01-28T12:18:07.852Z,62.54
2023-01-28T12:20:46.733Z,62.69
2023-01-28T12:23:33.408Z,61.06
2023-01-28T12:26:13.156Z,61.02
2023-01-28T12:28:59.117Z,60.92
2023-01-28T12:31:51.123Z,60.26
2023-01-28T12:34:52.975Z,61.59
2023-01-28T12:37:32.681Z,62.11
2023-01-28T12:40:21.570Z,61.57
2023-01-28T12:43:05.704Z,60.10
2023-01-28T12:45:42.527Z,59.96
2023-01-28T12:48:20.855Z,60.86
2023-01-28T12:50:54.909Z,60.28
2023-01-28T12:53:31.708Z,61.69
2023-01-28T12:56:10.833Z,61.55
2023-01-28T12:58:47.801Z,60.38
2023-01-28T13:01:25.264Z,61.00
2023-01-28T13:04:01.764Z,60.43
2023-01-28T13:06:38.555Z,60.73
2023-01-28T13:09:17.702Z,61.23
2023-01-28T13:11:50.950Z,61.00
2023-01-28T13:14:25.294Z,60.06
2023-01-28T13:16:55.969Z,60.21
2023-01-28T13:19:38.621Z,60.30
2023-01-28T13:22:30.024Z,60.50
2023-01-28T13:25:18.872Z,60.50
2023-01-28T13:27:59.442Z,60.16
2023-01-28T13:30:32.433Z,60.37
2023-01-28T13:33:05.647Z,60.12
2023-01-28T13:35:39.707Z,60.49
2023-01-28T13:38:16.168Z,60.47
2023-01-28T13:40:56.009Z,61.08
2023-01-28T13:43:35.589Z,60.76
2023-01-28T13:46:08.797Z,60.27
2023-01-28T13:48:46.280Z,60.52
2023-01-28T13:51:22.725Z,60.68
2023-01-28T13:54:00.059Z,60.69
2023-01-28T13:56:39.123Z,60.53
2023-01-28T13:59:38.028Z,61.57
2023-01-28T14:02:36.836Z,61.98
2023-01-28T14:05:29.624Z,62.01
2023-01-28T14:08:35.316Z,61.43
2023-01-28T14:11:22.395Z,62.04
2023-01-28T14:14:22.128Z,62.61
2023-01-28T14:16:56.731Z,62.52
2023-01-28T14:19:32.871Z,62.35
2023-01-28T14:22:09.826Z,61.75
2023-01-28T14:24:41.294Z,61.93
2023-01-28T14:27:18.120Z,62.17
2023-01-28T14:29:59.687Z,62.12
2023-01-28T14:32:33.597Z,61.96
2023-01-28T14:35:16.363Z,62.00
2023-01-28T14:37:47.388Z,61.07
2023-01-28T14:40:19.415Z,61.15
2023-01-28T14:42:59.879Z,61.84
2023-01-28T14:45:54.790Z,62.06
2023-01-28T14:48:31.475Z,62.05
2023-01-28T14:51:13.417Z,62.10
2023-01-28T14:54:17.769Z,62.05
2023-01-28T14:57:06.549Z,62.14
2023-01-28T14:59:43.135Z,62.10
2023-01-28T15:02:19.344Z,62.28
2023-01-28T15:04:51.345Z,62.05
2023-01-28T15:07:24.420Z,62.04
2023-01-28T15:10:17.180Z,61.92
2023-01-28T15:12:52.435Z,61.98
2023-01-28T15:15:29.775Z,61.95
2023-01-28T15:18:04.504Z,61.71
2023-01-28T15:20:35.327Z,61.92
2023-01-28T15:23:08.440Z,61.99
2023-01-28T15:25:39.266Z,62.15
2023-01-28T15:28:17.554Z,62.14
2023-01-28T15:30:50.597Z,62.15
2023-01-28T15:33:22.900Z,62.22
2023-01-28T15:35:55.341Z,62.45
2023-01-28T15:38:29.187Z,62.18
2023-01-28T15:41:01.951Z,62.11
2023-01-28T15:43:35.151Z,62.11
2023-01-28T15:46:12.073Z,62.31
2023-01-28T15:48:46.685Z,62.24
2023-01-28T15:51:24.239Z,62.41
2023-01-28T15:53:59.854Z,62.30
2023-01-28T15:56:31.853Z,62.21
2023-01-28T15:59:17.030Z,62.43
2023-01-28T16:01:47.832Z,62.48
2023-01-28T16:04:29.183Z,62.46
2023-01-28T16:07:04.410Z,62.58
2023-01-28T16:09:36.391Z,62.66
2023-01-28T16:12:11.274Z,62.38
2023-01-28T16:14:45.955Z,62.65
2023-01-28T16:17:21.056Z,62.68
2023-01-28T16:19:58.671Z,62.67
2023-01-28T16:22:35.362Z,62.73
2023-01-28T16:25:27.044Z,62.83
2023-01-28T16:27:59.050Z,62.65
2023-01-28T16:30:30.697Z,62.60
2023-01-28T16:33:01.331Z,62.79
2023-01-28T16:35:56.478Z,62.73
2023-01-28T16:38:22.960Z,62.85
2023-01-28T16:40:53.699Z,62.68
2023-01-28T16:43:24.372Z,62.81
2023-01-28T16:45:55.209Z,62.82
2023-01-28T16:48:26.469Z,62.86
2023-01-28T16:50:57.790Z,62.97
2023-01-28T16:53:32.650Z,62.96
2023-01-28T16:56:04.241Z,62.81
2023-01-28T16:58:35.712Z,62.78
2023-01-28T17:01:06.686Z,62.73
2023-01-28T17:03:37.390Z,62.79
2023-01-28T17:06:08.985Z,62.84
2023-01-28T17:08:39.620Z,62.74
2023-01-28T17:11:10.245Z,62.83
2023-01-28T17:13:41.095Z,62.82
2023-01-28T17:16:11.808Z,62.97
2023-01-28T17:18:42.564Z,63.17
2023-01-28T17:21:13.228Z,62.88
2023-01-28T17:23:43.857Z,62.86
2023-01-28T17:26:16.300Z,62.88
2023-01-28T17:28:51.287Z,62.87
2023-01-28T17:31:22.479Z,63.09
2023-01-28T17:33:57.677Z,63.20
2023-01-28T17:36:28.846Z,63.25
2023-01-28T17:38:57.930Z,63.07
2023-01-28T17:41:28.630Z,63.16
2023-01-28T17:43:59.424Z,63.26
2023-01-28T17:46:30.109Z,63.24
2023-01-28T17:49:01.309Z,63.36
2023-01-28T17:51:30.401Z,63.31
2023-01-28T17:54:01.050Z,63.44
2023-01-28T17:56:32.075Z,63.43
2023-01-28T17:59:02.042Z,63.28
2023-01-28T18:01:33.594Z,63.27
2023-01-28T18:04:05.236Z,63.45
2023-01-28T18:06:37.150Z,63.43
2023-01-28T18:09:07.953Z,63.47
2023-01-28T18:11:38.787Z,63.72
2023-01-28T18:14:09.789Z,63.88
2023-01-28T18:16:40.867Z,64.00
2023-01-28T18:19:09.945Z,64.00
2023-01-28T18:21:56.939Z,63.99
2023-01-28T18:24:29.586Z,64.16
2023-01-28T18:27:01.360Z,64.06
2023-01-28T18:29:32.569Z,64.10
2023-01-28T18:32:03.773Z,64.16
2023-01-28T18:34:32.859Z,64.30
2023-01-28T18:37:03.554Z,64.18
2023-01-28T18:39:34.348Z,64.23
2023-01-28T18:42:05.726Z,64.19
2023-01-28T18:44:36.366Z,64.07
2023-01-28T18:47:07.084Z,64.20
2023-01-28T18:49:38.077Z,64.36
2023-01-28T18:52:09.427Z,64.45
2023-01-28T18:54:40.322Z,64.49
2023-01-28T18:57:11.242Z,64.65
2023-01-28T18:59:42.011Z,64.79
2023-01-28T19:02:14.802Z,64.62
2023-01-28T19:04:45.639Z,64.65
2023-01-28T19:07:16.520Z,64.68
2023-01-28T19:09:47.508Z,64.66
2023-01-28T19:12:19.430Z,64.62
2023-01-28T19:14:51.415Z,64.55
2023-01-28T19:17:22.076Z,64.66
2023-01-28T19:19:52.833Z,64.65
2023-01-28T19:22:23.639Z,64.80
2023-01-28T19:24:54.552Z,64.90
2023-01-28T19:27:24.073Z,64.81
2023-01-28T19:29:54.726Z,64.71
2023-01-28T19:32:25.447Z,64.82
2023-01-28T19:34:56.077Z,64.78
2023-01-28T19:37:27.038Z,64.90
2023-01-28T19:39:57.675Z,64.93
2023-01-28T19:42:28.457Z,64.80
2023-01-28T19:44:59.295Z,64.81
2023-01-28T19:47:29.924Z,64.96
2023-01-28T19:50:00.715Z,65.04
2023-01-28T19:52:31.936Z,64.89
2023-01-28T19:55:02.627Z,65.02
2023-01-28T19:57:33.686Z,65.19
2023-01-28T20:00:02.837Z,65.11
2023-01-28T20:02:33.637Z,65.03
2023-01-28T20:05:04.920Z,65.15
2023-01-28T20:07:35.938Z,65.23
2023-01-28T20:10:18.300Z,65.03
2023-01-28T20:12:48.928Z,65.02
2023-01-28T20:15:19.568Z,65.19
2023-01-28T20:17:50.203Z,65.01
2023-01-28T20:23:19.728Z,64.91
2023-01-28T20:25:53.289Z,65.01
2023-01-28T20:28:25.388Z,65.11
2023-01-28T20:30:56.856Z,64.95
2023-01-28T20:33:27.628Z,65.15
2023-01-28T20:36:03.880Z,65.16
2023-01-28T20:38:37.969Z,65.20
2023-01-28T20:41:09.967Z,65.28
2023-01-28T20:43:41.950Z,65.12
2023-01-28T20:46:14.910Z,65.11
2023-01-28T20:48:46.119Z,65.05
2023-01-28T20:51:19.307Z,64.92
2023-01-28T20:53:50.366Z,64.89
2023-01-28T20:56:20.795Z,64.96
2023-01-28T20:58:56.269Z,64.99
2023-01-28T21:01:29.439Z,64.94
2023-01-28T21:04:00.487Z,64.78
2023-01-28T21:06:29.945Z,64.90
2023-01-28T21:09:01.173Z,64.83
2023-01-28T21:11:32.255Z,64.88
2023-01-28T21:14:02.874Z,64.89
2023-01-28T21:16:33.580Z,65.19
2023-01-28T21:19:04.280Z,65.35
2023-01-28T21:21:35.093Z,65.28
2023-01-28T21:24:08.892Z,65.10
2023-01-28T21:26:39.599Z,65.15
2023-01-28T21:29:10.477Z,65.27
2023-01-28T21:31:41.384Z,65.25
2023-01-28T21:34:12.432Z,65.11
2023-01-28T21:36:43.040Z,65.16
2023-01-28T21:39:13.915Z,65.46
2023-01-28T21:41:43.607Z,65.41
2023-01-28T21:44:14.375Z,65.52
2023-01-28T21:46:46.039Z,65.36
2023-01-28T21:49:16.833Z,65.28
2023-01-28T21:51:47.502Z,65.38
2023-01-28T21:54:19.550Z,65.37
2023-01-28T21:56:51.284Z,65.26
2023-01-28T21:59:21.915Z,65.32
2023-01-28T22:01:52.649Z,65.30
2023-01-28T22:04:24.773Z,65.23
2023-01-28T22:06:56.617Z,65.18
2023-01-28T22:09:27.927Z,65.11
2023-01-28T22:11:58.657Z,65.14
2023-01-28T22:14:29.370Z,65.18
2023-01-28T22:17:00.523Z,65.02
2023-01-28T22:19:31.372Z,64.95
2023-01-28T22:22:02.363Z,64.86
2023-01-28T22:24:33.278Z,65.12
2023-01-28T22:27:04.058Z,65.09
2023-01-28T22:29:34.736Z,64.92
2023-01-28T22:32:07.223Z,65.06
2023-01-28T22:34:38.163Z,64.76
2023-01-28T22:37:09.079Z,64.97
2023-01-28T22:39:39.786Z,64.77
2023-01-28T22:42:10.696Z,64.68
2023-01-28T22:44:41.387Z,64.83
2023-01-28T22:47:12.052Z,64.70
2023-01-28T22:49:42.789Z,64.74
2023-01-28T22:52:13.459Z,64.73
2023-01-28T22:54:44.567Z,64.64
2023-01-28T22:57:13.600Z,64.92
2023-01-28T22:59:59.247Z,64.67
2023-01-28T23:02:30.974Z,64.90
2023-01-28T23:05:01.727Z,64.71
2023-01-28T23:07:32.586Z,64.72
2023-01-28T23:10:12.304Z,64.72
2023-01-28T23:12:44.647Z,64.88
2023-01-28T23:15:15.628Z,64.84
2023-01-28T23:17:44.879Z,64.92
2023-01-28T23:20:16.370Z,64.89
2023-01-28T23:22:47.614Z,64.80
2023-01-28T23:25:19.630Z,64.76
2023-01-28T23:27:50.308Z,64.80
2023-01-28T23:30:27.318Z,64.90
2023-01-28T23:32:59.589Z,64.87
2023-01-28T23:35:30.251Z,64.90
2023-01-28T23:38:00.877Z,64.70
2023-01-28T23:40:31.648Z,64.89
2023-01-28T23:43:02.416Z,65.10
2023-01-28T23:45:33.131Z,65.23
2023-01-28T23:48:03.769Z,65.14
2023-01-28T23:50:34.420Z,65.06
2023-01-28T23:53:04.981Z,65.13
2023-01-28T23:55:37.903Z,65.14
2023-01-28T23:58:08.688Z,65.10
